sensor_id;sensor_type;location;lat;lon;timestamp;temperature;humidity
35962;DHT22;22044;48.298;10.008;2022-10-13T00:00:24;9.60;99.90
35962;DHT22;22044;48.298;10.008;2022-10-13T00:03:10;9.40;99.90
35962;DHT22;22044;48.298;10.008;2022-10-13T00:05:55;9.50;99.90
35962;DHT22;22044;48.298;10.008;2022-10-13T00:08:41;9.60;99.90
35962;DHT22;22044;48.298;10.008;2022-10-13T00:11:28;9.80;99.90
35962;DHT22;22044;48.298;10.008;2022-10-13T00:14:15;9.80;99.90
35962;DHT22;22044;48.298;10.008;2022-10-13T00:17:01;9.70;99.90
35962;DHT22;22044;48.298;10.008;2022-10-13T00:19:47;9.30;99.90
35962;DHT22;22044;48.298;10.008;2022-10-13T00:22:33;9.20;99.90
35962;DHT22;22044;48.298;10.008;2022-10-13T00:25:18;9.30;99.90
35962;DHT22;22044;48.298;10.008;2022-10-13T00:28:04;9.50;99.90
35962;DHT22;22044;48.298;10.008;2022-10-13T00:30:51;9.50;99.90
35962;DHT22;22044;48.298;10.008;2022-10-13T00:33:37;9.60;99.90
35962;DHT22;22044;48.298;10.008;2022-10-13T00:36:23;9.50;99.90
35962;DHT22;22044;48.298;10.008;2022-10-13T00:39:08;9.50;99.90
35962;DHT22;22044;48.298;10.008;2022-10-13T00:41:55;9.60;99.90
35962;DHT22;22044;48.298;10.008;2022-10-13T00:44:59;9.60;99.90
35962;DHT22;22044;48.298;10.008;2022-10-13T00:47:50;9.60;99.90
35962;DHT22;22044;48.298;10.008;2022-10-13T00:50:40;9.70;99.90
35962;DHT22;22044;48.298;10.008;2022-10-13T00:53:29;9.80;99.90
35962;DHT22;22044;48.298;10.008;2022-10-13T00:56:17;9.90;99.90
35962;DHT22;22044;48.298;10.008;2022-10-13T00:59:12;9.90;99.90
35962;DHT22;22044;48.298;10.008;2022-10-13T01:02:02;10.00;99.90
35962;DHT22;22044;48.298;10.008;2022-10-13T01:04:50;10.00;99.90
35962;DHT22;22044;48.298;10.008;2022-10-13T01:07:37;10.10;99.90
35962;DHT22;22044;48.298;10.008;2022-10-13T01:10:28;10.10;99.90
35962;DHT22;22044;48.298;10.008;2022-10-13T01:13:22;10.20;99.90
35962;DHT22;22044;48.298;10.008;2022-10-13T01:16:15;10.30;99.90
35962;DHT22;22044;48.298;10.008;2022-10-13T01:19:24;10.30;99.90
35962;DHT22;22044;48.298;10.008;2022-10-13T01:22:25;10.30;99.90
35962;DHT22;22044;48.298;10.008;2022-10-13T01:25:25;10.30;99.90
35962;DHT22;22044;48.298;10.008;2022-10-13T01:28:31;10.20;99.90
35962;DHT22;22044;48.298;10.008;2022-10-13T01:31:25;10.20;99.90
35962;DHT22;22044;48.298;10.008;2022-10-13T01:34:16;10.10;99.90
35962;DHT22;22044;48.298;10.008;2022-10-13T01:37:11;10.00;99.90
35962;DHT22;22044;48.298;10.008;2022-10-13T01:40:04;10.10;99.90
35962;DHT22;22044;48.298;10.008;2022-10-13T01:42:55;10.10;99.90
35962;DHT22;22044;48.298;10.008;2022-10-13T01:45:46;10.10;99.90
35962;DHT22;22044;48.298;10.008;2022-10-13T01:48:38;10.00;99.90
35962;DHT22;22044;48.298;10.008;2022-10-13T01:51:25;9.90;99.90
35962;DHT22;22044;48.298;10.008;2022-10-13T01:54:13;9.90;99.90
35962;DHT22;22044;48.298;10.008;2022-10-13T01:56:58;9.70;99.90
35962;DHT22;22044;48.298;10.008;2022-10-13T01:59:44;9.80;99.90
35962;DHT22;22044;48.298;10.008;2022-10-13T02:02:37;9.70;99.90
35962;DHT22;22044;48.298;10.008;2022-10-13T02:05:35;9.80;99.90
35962;DHT22;22044;48.298;10.008;2022-10-13T02:08:27;10.00;99.90
35962;DHT22;22044;48.298;10.008;2022-10-13T02:11:15;10.10;99.90
35962;DHT22;22044;48.298;10.008;2022-10-13T02:14:08;10.10;99.90
35962;DHT22;22044;48.298;10.008;2022-10-13T02:17:00;10.20;99.90
35962;DHT22;22044;48.298;10.008;2022-10-13T02:19:46;10.20;99.90
35962;DHT22;22044;48.298;10.008;2022-10-13T02:22:45;10.20;99.90
35962;DHT22;22044;48.298;10.008;2022-10-13T02:25:32;10.30;99.90
35962;DHT22;22044;48.298;10.008;2022-10-13T02:28:19;10.10;99.90
35962;DHT22;22044;48.298;10.008;2022-10-13T02:31:06;10.10;99.90
35962;DHT22;22044;48.298;10.008;2022-10-13T02:33:53;10.20;99.90
35962;DHT22;22044;48.298;10.008;2022-10-13T02:36:39;10.00;99.90
35962;DHT22;22044;48.298;10.008;2022-10-13T02:39:26;10.00;99.90
35962;DHT22;22044;48.298;10.008;2022-10-13T02:42:11;10.00;99.90
35962;DHT22;22044;48.298;10.008;2022-10-13T02:44:57;10.10;99.90
35962;DHT22;22044;48.298;10.008;2022-10-13T02:47:43;10.10;99.90
35962;DHT22;22044;48.298;10.008;2022-10-13T02:50:28;9.90;99.90
35962;DHT22;22044;48.298;10.008;2022-10-13T02:53:16;9.90;99.90
35962;DHT22;22044;48.298;10.008;2022-10-13T02:56:03;9.90;99.90
35962;DHT22;22044;48.298;10.008;2022-10-13T02:58:49;10.00;99.90
35962;DHT22;22044;48.298;10.008;2022-10-13T03:01:35;10.10;99.90
35962;DHT22;22044;48.298;10.008;2022-10-13T03:04:24;10.20;99.90
35962;DHT22;22044;48.298;10.008;2022-10-13T03:07:11;10.30;99.90
35962;DHT22;22044;48.298;10.008;2022-10-13T03:09:56;10.40;99.90
35962;DHT22;22044;48.298;10.008;2022-10-13T03:12:44;10.40;99.90
35962;DHT22;22044;48.298;10.008;2022-10-13T03:15:29;10.50;99.90
35962;DHT22;22044;48.298;10.008;2022-10-13T03:18:16;10.40;99.90
35962;DHT22;22044;48.298;10.008;2022-10-13T03:21:04;10.40;99.90
35962;DHT22;22044;48.298;10.008;2022-10-13T03:23:50;10.50;99.90
35962;DHT22;22044;48.298;10.008;2022-10-13T03:26:36;10.50;99.90
35962;DHT22;22044;48.298;10.008;2022-10-13T03:29:23;10.50;99.90
35962;DHT22;22044;48.298;10.008;2022-10-13T03:32:08;10.50;99.90
35962;DHT22;22044;48.298;10.008;2022-10-13T03:34:54;10.50;99.90
35962;DHT22;22044;48.298;10.008;2022-10-13T03:37:40;10.50;99.90
35962;DHT22;22044;48.298;10.008;2022-10-13T03:40:25;10.60;99.90
35962;DHT22;22044;48.298;10.008;2022-10-13T03:43:11;10.60;99.90
35962;DHT22;22044;48.298;10.008;2022-10-13T03:46:00;10.50;99.90
35962;DHT22;22044;48.298;10.008;2022-10-13T03:48:46;10.60;99.90
35962;DHT22;22044;48.298;10.008;2022-10-13T03:51:32;10.60;99.90
35962;DHT22;22044;48.298;10.008;2022-10-13T03:54:17;10.60;99.90
35962;DHT22;22044;48.298;10.008;2022-10-13T03:57:05;10.70;99.90
35962;DHT22;22044;48.298;10.008;2022-10-13T03:59:51;10.70;99.90
35962;DHT22;22044;48.298;10.008;2022-10-13T04:02:40;10.80;99.90
35962;DHT22;22044;48.298;10.008;2022-10-13T04:05:29;10.90;99.90
35962;DHT22;22044;48.298;10.008;2022-10-13T04:08:14;10.90;99.90
35962;DHT22;22044;48.298;10.008;2022-10-13T04:11:01;10.90;99.90
35962;DHT22;22044;48.298;10.008;2022-10-13T04:13:46;11.00;99.90
35962;DHT22;22044;48.298;10.008;2022-10-13T04:16:32;11.00;99.90
35962;DHT22;22044;48.298;10.008;2022-10-13T04:19:20;11.00;99.90
35962;DHT22;22044;48.298;10.008;2022-10-13T04:22:06;11.10;99.90
35962;DHT22;22044;48.298;10.008;2022-10-13T04:24:52;11.10;99.90
35962;DHT22;22044;48.298;10.008;2022-10-13T04:27:38;11.10;99.90
35962;DHT22;22044;48.298;10.008;2022-10-13T04:30:23;11.10;99.90
35962;DHT22;22044;48.298;10.008;2022-10-13T04:33:09;11.00;99.90
35962;DHT22;22044;48.298;10.008;2022-10-13T04:35:56;11.10;99.90
35962;DHT22;22044;48.298;10.008;2022-10-13T04:38:42;11.10;99.90
35962;DHT22;22044;48.298;10.008;2022-10-13T04:41:28;11.10;99.90
35962;DHT22;22044;48.298;10.008;2022-10-13T04:44:14;11.10;99.90
35962;DHT22;22044;48.298;10.008;2022-10-13T04:46:59;11.20;99.90
35962;DHT22;22044;48.298;10.008;2022-10-13T04:49:45;11.20;99.90
35962;DHT22;22044;48.298;10.008;2022-10-13T04:52:32;11.20;99.90
35962;DHT22;22044;48.298;10.008;2022-10-13T04:55:18;11.20;99.90
35962;DHT22;22044;48.298;10.008;2022-10-13T04:58:04;11.20;99.90
35962;DHT22;22044;48.298;10.008;2022-10-13T05:00:50;11.20;99.90
35962;DHT22;22044;48.298;10.008;2022-10-13T05:03:35;11.20;99.90
35962;DHT22;22044;48.298;10.008;2022-10-13T05:06:23;11.10;99.90
35962;DHT22;22044;48.298;10.008;2022-10-13T05:09:15;11.10;99.90
35962;DHT22;22044;48.298;10.008;2022-10-13T05:12:00;11.10;99.90
35962;DHT22;22044;48.298;10.008;2022-10-13T05:14:46;11.10;99.90
35962;DHT22;22044;48.298;10.008;2022-10-13T05:17:31;11.10;99.90
35962;DHT22;22044;48.298;10.008;2022-10-13T05:20:19;11.20;99.90
35962;DHT22;22044;48.298;10.008;2022-10-13T05:23:05;11.10;99.90
35962;DHT22;22044;48.298;10.008;2022-10-13T05:25:52;10.80;99.90
35962;DHT22;22044;48.298;10.008;2022-10-13T05:28:39;10.80;99.90
35962;DHT22;22044;48.298;10.008;2022-10-13T05:31:26;10.90;99.90
35962;DHT22;22044;48.298;10.008;2022-10-13T05:34:13;10.90;99.90
35962;DHT22;22044;48.298;10.008;2022-10-13T05:36:59;11.00;99.90
35962;DHT22;22044;48.298;10.008;2022-10-13T05:39:45;11.10;99.90
35962;DHT22;22044;48.298;10.008;2022-10-13T05:42:34;11.10;99.90
35962;DHT22;22044;48.298;10.008;2022-10-13T05:45:20;11.00;99.90
35962;DHT22;22044;48.298;10.008;2022-10-13T05:48:08;11.10;99.90
35962;DHT22;22044;48.298;10.008;2022-10-13T05:50:54;11.00;99.90
35962;DHT22;22044;48.298;10.008;2022-10-13T05:53:42;11.10;99.90
35962;DHT22;22044;48.298;10.008;2022-10-13T05:56:32;11.10;99.90
35962;DHT22;22044;48.298;10.008;2022-10-13T05:59:22;10.90;99.90
35962;DHT22;22044;48.298;10.008;2022-10-13T06:02:10;11.00;99.90
35962;DHT22;22044;48.298;10.008;2022-10-13T06:04:56;11.00;99.90
35962;DHT22;22044;48.298;10.008;2022-10-13T06:07:43;11.00;99.90
35962;DHT22;22044;48.298;10.008;2022-10-13T06:10:29;11.00;99.90
35962;DHT22;22044;48.298;10.008;2022-10-13T06:13:15;11.00;99.90
35962;DHT22;22044;48.298;10.008;2022-10-13T06:16:02;11.10;99.90
35962;DHT22;22044;48.298;10.008;2022-10-13T06:18:47;11.10;99.90
35962;DHT22;22044;48.298;10.008;2022-10-13T06:21:33;11.10;99.90
35962;DHT22;22044;48.298;10.008;2022-10-13T06:24:20;11.20;99.90
35962;DHT22;22044;48.298;10.008;2022-10-13T06:27:05;11.10;99.90
35962;DHT22;22044;48.298;10.008;2022-10-13T06:29:51;11.10;99.90
35962;DHT22;22044;48.298;10.008;2022-10-13T06:32:40;11.10;99.90
35962;DHT22;22044;48.298;10.008;2022-10-13T06:35:25;11.10;99.90
35962;DHT22;22044;48.298;10.008;2022-10-13T06:38:11;11.10;99.90
35962;DHT22;22044;48.298;10.008;2022-10-13T06:41:00;11.20;99.90
35962;DHT22;22044;48.298;10.008;2022-10-13T06:43:48;11.20;99.90
35962;DHT22;22044;48.298;10.008;2022-10-13T06:46:34;11.30;99.90
35962;DHT22;22044;48.298;10.008;2022-10-13T06:49:22;11.40;99.90
35962;DHT22;22044;48.298;10.008;2022-10-13T06:52:08;11.40;99.90
35962;DHT22;22044;48.298;10.008;2022-10-13T06:54:53;11.50;99.90
35962;DHT22;22044;48.298;10.008;2022-10-13T06:57:39;11.50;99.90
35962;DHT22;22044;48.298;10.008;2022-10-13T07:00:25;11.60;99.90
35962;DHT22;22044;48.298;10.008;2022-10-13T07:03:10;11.60;99.90
35962;DHT22;22044;48.298;10.008;2022-10-13T07:06:00;11.70;99.90
35962;DHT22;22044;48.298;10.008;2022-10-13T07:08:47;11.70;99.90
35962;DHT22;22044;48.298;10.008;2022-10-13T07:11:33;11.80;99.90
35962;DHT22;22044;48.298;10.008;2022-10-13T07:14:19;11.70;99.90
35962;DHT22;22044;48.298;10.008;2022-10-13T07:17:04;11.80;99.90
35962;DHT22;22044;48.298;10.008;2022-10-13T07:19:50;11.80;99.90
35962;DHT22;22044;48.298;10.008;2022-10-13T07:22:37;11.90;99.90
35962;DHT22;22044;48.298;10.008;2022-10-13T07:25:23;11.90;99.90
35962;DHT22;22044;48.298;10.008;2022-10-13T07:28:08;11.90;99.90
35962;DHT22;22044;48.298;10.008;2022-10-13T07:30:54;11.90;99.90
35962;DHT22;22044;48.298;10.008;2022-10-13T07:33:40;11.90;99.90
35962;DHT22;22044;48.298;10.008;2022-10-13T07:36:26;12.00;99.90
35962;DHT22;22044;48.298;10.008;2022-10-13T07:39:13;12.10;99.90
35962;DHT22;22044;48.298;10.008;2022-10-13T07:41:58;12.10;99.90
35962;DHT22;22044;48.298;10.008;2022-10-13T07:44:44;12.20;99.90
35962;DHT22;22044;48.298;10.008;2022-10-13T07:47:30;12.30;99.90
35962;DHT22;22044;48.298;10.008;2022-10-13T07:50:15;12.40;99.90
35962;DHT22;22044;48.298;10.008;2022-10-13T07:53:01;12.50;99.90
35962;DHT22;22044;48.298;10.008;2022-10-13T07:55:49;12.50;99.90
35962;DHT22;22044;48.298;10.008;2022-10-13T07:58:36;12.60;99.90
35962;DHT22;22044;48.298;10.008;2022-10-13T08:01:22;12.70;99.90
35962;DHT22;22044;48.298;10.008;2022-10-13T08:04:07;12.80;99.90
35962;DHT22;22044;48.298;10.008;2022-10-13T08:06:53;13.00;99.90
35962;DHT22;22044;48.298;10.008;2022-10-13T08:09:39;13.20;99.90
35962;DHT22;22044;48.298;10.008;2022-10-13T08:12:26;13.40;99.90
35962;DHT22;22044;48.298;10.008;2022-10-13T08:15:11;13.80;99.90
35962;DHT22;22044;48.298;10.008;2022-10-13T08:17:57;14.10;99.90
35962;DHT22;22044;48.298;10.008;2022-10-13T08:20:44;14.50;99.90
35962;DHT22;22044;48.298;10.008;2022-10-13T08:23:30;14.80;99.90
35962;DHT22;22044;48.298;10.008;2022-10-13T08:26:18;15.10;99.90
35962;DHT22;22044;48.298;10.008;2022-10-13T08:29:05;15.20;99.90
35962;DHT22;22044;48.298;10.008;2022-10-13T08:31:52;15.50;99.90
35962;DHT22;22044;48.298;10.008;2022-10-13T08:34:38;15.70;99.90
35962;DHT22;22044;48.298;10.008;2022-10-13T08:37:24;15.60;99.90
35962;DHT22;22044;48.298;10.008;2022-10-13T08:40:20;16.00;99.90
35962;DHT22;22044;48.298;10.008;2022-10-13T08:43:07;15.90;99.90
35962;DHT22;22044;48.298;10.008;2022-10-13T08:45:59;15.70;99.90
35962;DHT22;22044;48.298;10.008;2022-10-13T08:48:47;15.30;99.90
35962;DHT22;22044;48.298;10.008;2022-10-13T08:51:33;14.90;99.90
35962;DHT22;22044;48.298;10.008;2022-10-13T08:54:21;14.80;99.90
35962;DHT22;22044;48.298;10.008;2022-10-13T08:57:09;14.60;99.90
35962;DHT22;22044;48.298;10.008;2022-10-13T08:59:54;14.40;99.90
35962;DHT22;22044;48.298;10.008;2022-10-13T09:02:42;14.40;99.90
35962;DHT22;22044;48.298;10.008;2022-10-13T09:05:36;14.40;99.90
35962;DHT22;22044;48.298;10.008;2022-10-13T09:08:28;14.40;99.90
35962;DHT22;22044;48.298;10.008;2022-10-13T09:11:16;14.50;99.90
35962;DHT22;22044;48.298;10.008;2022-10-13T09:14:03;14.60;99.90
35962;DHT22;22044;48.298;10.008;2022-10-13T09:16:50;14.60;99.90
35962;DHT22;22044;48.298;10.008;2022-10-13T09:19:38;14.50;99.90
35962;DHT22;22044;48.298;10.008;2022-10-13T09:22:26;14.40;99.90
35962;DHT22;22044;48.298;10.008;2022-10-13T09:25:19;14.50;99.90
35962;DHT22;22044;48.298;10.008;2022-10-13T09:28:09;14.40;99.90
35962;DHT22;22044;48.298;10.008;2022-10-13T09:31:01;14.30;99.90
35962;DHT22;22044;48.298;10.008;2022-10-13T09:33:56;14.30;99.90
35962;DHT22;22044;48.298;10.008;2022-10-13T09:36:58;14.40;99.90
35962;DHT22;22044;48.298;10.008;2022-10-13T09:39:44;14.50;99.90
35962;DHT22;22044;48.298;10.008;2022-10-13T09:42:32;14.50;99.90
35962;DHT22;22044;48.298;10.008;2022-10-13T09:45:20;14.60;99.90
35962;DHT22;22044;48.298;10.008;2022-10-13T09:48:14;14.60;99.90
35962;DHT22;22044;48.298;10.008;2022-10-13T09:51:01;14.70;99.90
35962;DHT22;22044;48.298;10.008;2022-10-13T09:53:50;14.70;99.90
35962;DHT22;22044;48.298;10.008;2022-10-13T09:56:40;14.50;99.90
35962;DHT22;22044;48.298;10.008;2022-10-13T09:59:30;14.50;99.90
35962;DHT22;22044;48.298;10.008;2022-10-13T10:02:27;14.40;99.90
35962;DHT22;22044;48.298;10.008;2022-10-13T10:05:21;14.50;99.90
35962;DHT22;22044;48.298;10.008;2022-10-13T10:08:16;14.50;99.90
35962;DHT22;22044;48.298;10.008;2022-10-13T10:11:08;14.60;99.90
35962;DHT22;22044;48.298;10.008;2022-10-13T10:13:54;14.80;99.90
35962;DHT22;22044;48.298;10.008;2022-10-13T10:16:42;14.90;99.90
35962;DHT22;22044;48.298;10.008;2022-10-13T10:19:42;15.10;99.90
35962;DHT22;22044;48.298;10.008;2022-10-13T10:22:35;15.00;99.90
35962;DHT22;22044;48.298;10.008;2022-10-13T10:25:27;14.90;99.90
35962;DHT22;22044;48.298;10.008;2022-10-13T10:28:38;14.90;99.90
35962;DHT22;22044;48.298;10.008;2022-10-13T10:31:45;15.00;99.90
35962;DHT22;22044;48.298;10.008;2022-10-13T10:34:36;15.10;99.90
35962;DHT22;22044;48.298;10.008;2022-10-13T10:37:36;15.10;99.90
35962;DHT22;22044;48.298;10.008;2022-10-13T10:40:35;15.30;99.90
35962;DHT22;22044;48.298;10.008;2022-10-13T10:46:37;15.30;99.90
35962;DHT22;22044;48.298;10.008;2022-10-13T10:49:28;15.50;99.90
35962;DHT22;22044;48.298;10.008;2022-10-13T10:52:21;15.50;99.90
35962;DHT22;22044;48.298;10.008;2022-10-13T10:55:19;15.50;99.90
35962;DHT22;22044;48.298;10.008;2022-10-13T10:58:17;15.40;99.90
35962;DHT22;22044;48.298;10.008;2022-10-13T11:01:15;15.40;99.90
35962;DHT22;22044;48.298;10.008;2022-10-13T11:04:35;15.40;99.90
35962;DHT22;22044;48.298;10.008;2022-10-13T11:10:47;15.60;99.90
35962;DHT22;22044;48.298;10.008;2022-10-13T11:13:55;15.70;99.90
35962;DHT22;22044;48.298;10.008;2022-10-13T11:17:02;15.50;99.90
35962;DHT22;22044;48.298;10.008;2022-10-13T11:19:54;15.60;99.90
35962;DHT22;22044;48.298;10.008;2022-10-13T11:22:40;15.70;99.90
35962;DHT22;22044;48.298;10.008;2022-10-13T11:25:36;15.50;99.90
35962;DHT22;22044;48.298;10.008;2022-10-13T11:28:43;15.50;99.90
35962;DHT22;22044;48.298;10.008;2022-10-13T11:31:31;15.60;99.90
35962;DHT22;22044;48.298;10.008;2022-10-13T11:34:32;15.30;99.90
35962;DHT22;22044;48.298;10.008;2022-10-13T11:37:18;15.20;99.90
35962;DHT22;22044;48.298;10.008;2022-10-13T11:40:15;15.20;99.90
35962;DHT22;22044;48.298;10.008;2022-10-13T11:43:13;15.20;99.90
35962;DHT22;22044;48.298;10.008;2022-10-13T11:46:23;15.20;99.90
35962;DHT22;22044;48.298;10.008;2022-10-13T11:49:45;15.40;99.90
35962;DHT22;22044;48.298;10.008;2022-10-13T11:52:59;15.50;99.90
35962;DHT22;22044;48.298;10.008;2022-10-13T11:55:49;15.40;99.90
35962;DHT22;22044;48.298;10.008;2022-10-13T11:58:41;15.40;99.90
35962;DHT22;22044;48.298;10.008;2022-10-13T12:01:28;15.40;99.90
35962;DHT22;22044;48.298;10.008;2022-10-13T12:04:14;15.40;99.90
35962;DHT22;22044;48.298;10.008;2022-10-13T12:07:03;15.40;99.90
35962;DHT22;22044;48.298;10.008;2022-10-13T12:09:50;15.40;99.90
35962;DHT22;22044;48.298;10.008;2022-10-13T12:12:45;15.50;99.90
35962;DHT22;22044;48.298;10.008;2022-10-13T12:15:34;15.50;99.90
35962;DHT22;22044;48.298;10.008;2022-10-13T12:18:25;15.50;99.90
35962;DHT22;22044;48.298;10.008;2022-10-13T12:21:13;15.60;99.90
35962;DHT22;22044;48.298;10.008;2022-10-13T12:24:07;15.70;99.90
35962;DHT22;22044;48.298;10.008;2022-10-13T12:26:53;15.70;99.90
35962;DHT22;22044;48.298;10.008;2022-10-13T12:29:39;15.70;99.90
35962;DHT22;22044;48.298;10.008;2022-10-13T12:32:27;15.70;99.90
35962;DHT22;22044;48.298;10.008;2022-10-13T12:35:17;15.80;99.90
35962;DHT22;22044;48.298;10.008;2022-10-13T12:38:05;15.80;99.90
35962;DHT22;22044;48.298;10.008;2022-10-13T12:40:54;15.90;99.90
35962;DHT22;22044;48.298;10.008;2022-10-13T12:43:43;15.80;99.90
35962;DHT22;22044;48.298;10.008;2022-10-13T12:46:37;15.90;99.90
35962;DHT22;22044;48.298;10.008;2022-10-13T12:49:26;15.60;99.90
35962;DHT22;22044;48.298;10.008;2022-10-13T12:52:14;15.40;99.90
35962;DHT22;22044;48.298;10.008;2022-10-13T12:55:00;15.50;99.90
35962;DHT22;22044;48.298;10.008;2022-10-13T12:57:52;15.60;99.90
35962;DHT22;22044;48.298;10.008;2022-10-13T13:00:37;15.70;99.90
35962;DHT22;22044;48.298;10.008;2022-10-13T13:03:26;15.80;99.90
35962;DHT22;22044;48.298;10.008;2022-10-13T13:06:23;15.70;99.90
35962;DHT22;22044;48.298;10.008;2022-10-13T13:09:28;15.80;99.90
35962;DHT22;22044;48.298;10.008;2022-10-13T13:12:22;15.80;99.90
35962;DHT22;22044;48.298;10.008;2022-10-13T13:15:30;15.80;99.90
35962;DHT22;22044;48.298;10.008;2022-10-13T13:18:31;15.60;99.90
35962;DHT22;22044;48.298;10.008;2022-10-13T13:21:20;15.30;99.90
35962;DHT22;22044;48.298;10.008;2022-10-13T13:24:05;15.50;99.90
35962;DHT22;22044;48.298;10.008;2022-10-13T13:26:51;15.50;99.90
35962;DHT22;22044;48.298;10.008;2022-10-13T13:29:37;15.50;99.90
35962;DHT22;22044;48.298;10.008;2022-10-13T13:32:26;15.50;99.90
35962;DHT22;22044;48.298;10.008;2022-10-13T13:35:11;15.40;99.90
35962;DHT22;22044;48.298;10.008;2022-10-13T13:37:57;15.40;99.90
35962;DHT22;22044;48.298;10.008;2022-10-13T13:40:46;15.40;99.90
35962;DHT22;22044;48.298;10.008;2022-10-13T13:43:31;15.30;99.90
35962;DHT22;22044;48.298;10.008;2022-10-13T13:46:19;15.30;99.90
35962;DHT22;22044;48.298;10.008;2022-10-13T13:49:07;15.50;99.90
35962;DHT22;22044;48.298;10.008;2022-10-13T13:51:54;15.40;99.90
35962;DHT22;22044;48.298;10.008;2022-10-13T13:54:40;15.50;99.90
35962;DHT22;22044;48.298;10.008;2022-10-13T13:57:26;15.60;99.90
35962;DHT22;22044;48.298;10.008;2022-10-13T14:00:13;15.60;99.90
35962;DHT22;22044;48.298;10.008;2022-10-13T14:03:00;15.40;99.90
35962;DHT22;22044;48.298;10.008;2022-10-13T14:05:47;15.30;99.90
35962;DHT22;22044;48.298;10.008;2022-10-13T14:08:36;15.40;99.90
35962;DHT22;22044;48.298;10.008;2022-10-13T14:11:27;15.40;99.90
35962;DHT22;22044;48.298;10.008;2022-10-13T14:14:12;15.40;99.90
35962;DHT22;22044;48.298;10.008;2022-10-13T14:16:58;15.40;99.90
35962;DHT22;22044;48.298;10.008;2022-10-13T14:19:44;15.40;99.90
35962;DHT22;22044;48.298;10.008;2022-10-13T14:22:31;15.40;99.90
35962;DHT22;22044;48.298;10.008;2022-10-13T14:25:16;15.40;99.90
35962;DHT22;22044;48.298;10.008;2022-10-13T14:28:02;15.50;99.90
35962;DHT22;22044;48.298;10.008;2022-10-13T14:30:48;15.40;99.90
35962;DHT22;22044;48.298;10.008;2022-10-13T14:33:33;15.50;99.90
35962;DHT22;22044;48.298;10.008;2022-10-13T14:36:19;15.60;99.90
35962;DHT22;22044;48.298;10.008;2022-10-13T14:39:06;15.70;99.90
35962;DHT22;22044;48.298;10.008;2022-10-13T14:41:52;15.60;99.90
35962;DHT22;22044;48.298;10.008;2022-10-13T14:44:37;15.40;99.90
35962;DHT22;22044;48.298;10.008;2022-10-13T14:47:23;15.40;99.90
35962;DHT22;22044;48.298;10.008;2022-10-13T14:50:09;15.40;99.90
35962;DHT22;22044;48.298;10.008;2022-10-13T14:52:54;15.30;99.90
35962;DHT22;22044;48.298;10.008;2022-10-13T14:55:42;15.40;99.90
35962;DHT22;22044;48.298;10.008;2022-10-13T14:58:28;15.30;99.90
35962;DHT22;22044;48.298;10.008;2022-10-13T15:01:14;15.40;99.90
35962;DHT22;22044;48.298;10.008;2022-10-13T15:03:59;15.40;99.90
35962;DHT22;22044;48.298;10.008;2022-10-13T15:06:45;15.40;99.90
35962;DHT22;22044;48.298;10.008;2022-10-13T15:09:31;15.40;99.90
35962;DHT22;22044;48.298;10.008;2022-10-13T15:12:18;15.50;99.90
35962;DHT22;22044;48.298;10.008;2022-10-13T15:15:04;15.50;99.90
35962;DHT22;22044;48.298;10.008;2022-10-13T15:17:53;15.50;99.90
35962;DHT22;22044;48.298;10.008;2022-10-13T15:20:44;15.30;99.90
35962;DHT22;22044;48.298;10.008;2022-10-13T15:23:32;15.20;99.90
35962;DHT22;22044;48.298;10.008;2022-10-13T15:26:18;15.10;99.90
35962;DHT22;22044;48.298;10.008;2022-10-13T15:29:05;15.10;99.90
35962;DHT22;22044;48.298;10.008;2022-10-13T15:31:51;15.10;99.90
35962;DHT22;22044;48.298;10.008;2022-10-13T15:34:37;15.10;99.90
35962;DHT22;22044;48.298;10.008;2022-10-13T15:37:22;15.20;99.90
35962;DHT22;22044;48.298;10.008;2022-10-13T15:40:09;15.30;99.90
35962;DHT22;22044;48.298;10.008;2022-10-13T15:42:58;15.30;99.90
35962;DHT22;22044;48.298;10.008;2022-10-13T15:45:52;15.30;99.90
35962;DHT22;22044;48.298;10.008;2022-10-13T15:48:39;15.30;99.90
35962;DHT22;22044;48.298;10.008;2022-10-13T15:51:24;15.40;99.90
35962;DHT22;22044;48.298;10.008;2022-10-13T15:54:13;15.30;99.90
35962;DHT22;22044;48.298;10.008;2022-10-13T15:56:58;15.20;99.90
35962;DHT22;22044;48.298;10.008;2022-10-13T15:59:44;15.10;99.90
35962;DHT22;22044;48.298;10.008;2022-10-13T16:02:31;15.00;99.90
35962;DHT22;22044;48.298;10.008;2022-10-13T16:05:17;14.90;99.90
35962;DHT22;22044;48.298;10.008;2022-10-13T16:08:03;14.70;99.90
35962;DHT22;22044;48.298;10.008;2022-10-13T16:10:51;14.60;99.90
35962;DHT22;22044;48.298;10.008;2022-10-13T16:13:40;14.50;99.90
35962;DHT22;22044;48.298;10.008;2022-10-13T16:16:25;14.40;99.90
35962;DHT22;22044;48.298;10.008;2022-10-13T16:19:14;14.30;99.90
35962;DHT22;22044;48.298;10.008;2022-10-13T16:22:00;14.30;99.90
35962;DHT22;22044;48.298;10.008;2022-10-13T16:24:46;14.20;99.90
35962;DHT22;22044;48.298;10.008;2022-10-13T16:27:31;14.20;99.90
35962;DHT22;22044;48.298;10.008;2022-10-13T16:30:17;14.20;99.90
35962;DHT22;22044;48.298;10.008;2022-10-13T16:33:03;14.10;99.90
35962;DHT22;22044;48.298;10.008;2022-10-13T16:35:50;14.10;99.90
35962;DHT22;22044;48.298;10.008;2022-10-13T16:38:36;14.10;99.90
35962;DHT22;22044;48.298;10.008;2022-10-13T16:41:22;14.10;99.90
35962;DHT22;22044;48.298;10.008;2022-10-13T16:44:08;14.20;99.90
35962;DHT22;22044;48.298;10.008;2022-10-13T16:46:53;14.20;99.90
35962;DHT22;22044;48.298;10.008;2022-10-13T16:49:40;14.20;99.90
35962;DHT22;22044;48.298;10.008;2022-10-13T16:52:29;14.20;99.90
35962;DHT22;22044;48.298;10.008;2022-10-13T16:55:15;14.10;99.90
35962;DHT22;22044;48.298;10.008;2022-10-13T16:58:00;13.90;99.90
35962;DHT22;22044;48.298;10.008;2022-10-13T17:00:46;13.80;99.90
35962;DHT22;22044;48.298;10.008;2022-10-13T17:03:32;13.70;99.90
35962;DHT22;22044;48.298;10.008;2022-10-13T17:06:18;13.60;99.90
35962;DHT22;22044;48.298;10.008;2022-10-13T17:09:13;13.50;99.90
35962;DHT22;22044;48.298;10.008;2022-10-13T17:11:59;13.50;99.90
35962;DHT22;22044;48.298;10.008;2022-10-13T17:14:47;13.50;99.90
35962;DHT22;22044;48.298;10.008;2022-10-13T17:17:32;13.60;99.90
35962;DHT22;22044;48.298;10.008;2022-10-13T17:20:18;13.50;99.90
35962;DHT22;22044;48.298;10.008;2022-10-13T17:23:04;13.50;99.90
35962;DHT22;22044;48.298;10.008;2022-10-13T17:25:52;13.50;99.90
35962;DHT22;22044;48.298;10.008;2022-10-13T17:28:38;13.40;99.90
35962;DHT22;22044;48.298;10.008;2022-10-13T17:31:24;13.40;99.90
35962;DHT22;22044;48.298;10.008;2022-10-13T17:34:10;13.30;99.90
35962;DHT22;22044;48.298;10.008;2022-10-13T17:36:56;13.20;99.90